In Rescue
 
Open Full Screen Window  High Contrast Mode
Wind Gusting 00 knots
09
November 29, 2022 10:39 AM EST
Present Weather: Mist
Weather Information
Wind Direction
  150 °
Wind Speed
  09 kt (10 mph)
Wind Gust
  00 kt (0 mph)
Altimeter
29.93 in
Visibility
5 SM
Temperature
07° C
45° F
Dewpoint
05° C
41° F
Humidity
87%
Sky Condition
Overcast @ 3,200 ft
Scattered @ 1,000 ft
MVFR

METAR KOEB 291539Z AUTO 15009KT 5SM BR SCT010 OVC032 07/05 A2993 RMK AO2 T00720050

FAA Disclaimer: The data displayed is for advisory purposes only and is not to be used for flight planning or operations.